sensor_id;sensor_type;location;lat;lon;timestamp;P1;durP1;ratioP1;P2;durP2;ratioP2
7933;SDS011;4012;48.896;9.192;2024-03-08T00:00:12;19.13;;;14.47;;
7933;SDS011;4012;48.896;9.192;2024-03-08T00:02:40;22.50;;;15.13;;
7933;SDS011;4012;48.896;9.192;2024-03-08T00:05:06;26.40;;;18.53;;
7933;SDS011;4012;48.896;9.192;2024-03-08T00:07:34;34.87;;;22.57;;
7933;SDS011;4012;48.896;9.192;2024-03-08T00:10:01;33.50;;;22.90;;
7933;SDS011;4012;48.896;9.192;2024-03-08T00:12:27;23.03;;;15.47;;
7933;SDS011;4012;48.896;9.192;2024-03-08T00:14:53;21.83;;;14.60;;
7933;SDS011;4012;48.896;9.192;2024-03-08T00:17:19;22.10;;;14.87;;
7933;SDS011;4012;48.896;9.192;2024-03-08T00:19:47;20.63;;;16.00;;
7933;SDS011;4012;48.896;9.192;2024-03-08T00:22:16;20.43;;;15.63;;
7933;SDS011;4012;48.896;9.192;2024-03-08T00:24:42;20.17;;;16.67;;
7933;SDS011;4012;48.896;9.192;2024-03-08T00:27:08;19.63;;;16.20;;
7933;SDS011;4012;48.896;9.192;2024-03-08T00:29:34;17.47;;;13.00;;
7933;SDS011;4012;48.896;9.192;2024-03-08T00:32:00;20.10;;;15.87;;
7933;SDS011;4012;48.896;9.192;2024-03-08T00:34:26;17.97;;;15.60;;
7933;SDS011;4012;48.896;9.192;2024-03-08T00:36:51;20.33;;;16.23;;
7933;SDS011;4012;48.896;9.192;2024-03-08T00:39:17;21.73;;;16.07;;
7933;SDS011;4012;48.896;9.192;2024-03-08T00:41:46;21.87;;;16.43;;
7933;SDS011;4012;48.896;9.192;2024-03-08T00:44:12;19.13;;;13.37;;
7933;SDS011;4012;48.896;9.192;2024-03-08T00:46:38;18.30;;;14.67;;
7933;SDS011;4012;48.896;9.192;2024-03-08T00:49:03;25.60;;;16.07;;
7933;SDS011;4012;48.896;9.192;2024-03-08T00:51:29;23.57;;;14.30;;
7933;SDS011;4012;48.896;9.192;2024-03-08T00:53:54;22.27;;;16.17;;
7933;SDS011;4012;48.896;9.192;2024-03-08T00:56:20;20.37;;;16.80;;
7933;SDS011;4012;48.896;9.192;2024-03-08T00:58:45;21.33;;;16.30;;
7933;SDS011;4012;48.896;9.192;2024-03-08T01:01:12;21.63;;;16.73;;
7933;SDS011;4012;48.896;9.192;2024-03-08T01:03:42;20.90;;;15.63;;
7933;SDS011;4012;48.896;9.192;2024-03-08T01:06:08;21.97;;;14.00;;
7933;SDS011;4012;48.896;9.192;2024-03-08T01:08:34;20.87;;;14.57;;
7933;SDS011;4012;48.896;9.192;2024-03-08T01:10:59;21.60;;;16.33;;
7933;SDS011;4012;48.896;9.192;2024-03-08T01:13:25;22.23;;;16.87;;
7933;SDS011;4012;48.896;9.192;2024-03-08T01:15:51;18.73;;;13.83;;
7933;SDS011;4012;48.896;9.192;2024-03-08T01:18:16;19.57;;;13.77;;
7933;SDS011;4012;48.896;9.192;2024-03-08T01:20:42;22.17;;;16.07;;
7933;SDS011;4012;48.896;9.192;2024-03-08T01:23:07;18.73;;;13.13;;
7933;SDS011;4012;48.896;9.192;2024-03-08T01:25:33;21.20;;;16.97;;
7933;SDS011;4012;48.896;9.192;2024-03-08T01:27:59;21.37;;;17.20;;
7933;SDS011;4012;48.896;9.192;2024-03-08T01:30:25;19.03;;;15.10;;
7933;SDS011;4012;48.896;9.192;2024-03-08T01:32:50;23.10;;;14.63;;
7933;SDS011;4012;48.896;9.192;2024-03-08T01:35:16;18.13;;;14.13;;
7933;SDS011;4012;48.896;9.192;2024-03-08T01:37:41;20.77;;;14.50;;
7933;SDS011;4012;48.896;9.192;2024-03-08T01:40:07;20.77;;;14.30;;
7933;SDS011;4012;48.896;9.192;2024-03-08T01:42:33;20.13;;;16.87;;
7933;SDS011;4012;48.896;9.192;2024-03-08T01:45:02;21.37;;;13.40;;
7933;SDS011;4012;48.896;9.192;2024-03-08T01:47:31;20.40;;;16.47;;
7933;SDS011;4012;48.896;9.192;2024-03-08T01:49:58;22.43;;;16.87;;
7933;SDS011;4012;48.896;9.192;2024-03-08T01:52:26;21.80;;;15.77;;
7933;SDS011;4012;48.896;9.192;2024-03-08T01:54:53;23.77;;;15.90;;
7933;SDS011;4012;48.896;9.192;2024-03-08T01:57:19;21.27;;;13.90;;
7933;SDS011;4012;48.896;9.192;2024-03-08T01:59:44;19.53;;;14.60;;
7933;SDS011;4012;48.896;9.192;2024-03-08T02:02:10;19.97;;;16.20;;
7933;SDS011;4012;48.896;9.192;2024-03-08T02:04:38;19.30;;;15.47;;
7933;SDS011;4012;48.896;9.192;2024-03-08T02:07:04;21.13;;;16.70;;
7933;SDS011;4012;48.896;9.192;2024-03-08T02:09:30;22.17;;;17.57;;
7933;SDS011;4012;48.896;9.192;2024-03-08T02:11:56;22.77;;;16.23;;
7933;SDS011;4012;48.896;9.192;2024-03-08T02:14:22;21.30;;;16.10;;
7933;SDS011;4012;48.896;9.192;2024-03-08T02:16:48;23.10;;;17.10;;
7933;SDS011;4012;48.896;9.192;2024-03-08T02:19:16;20.93;;;14.13;;
7933;SDS011;4012;48.896;9.192;2024-03-08T02:21:41;21.13;;;16.80;;
7933;SDS011;4012;48.896;9.192;2024-03-08T02:24:08;21.37;;;16.27;;
7933;SDS011;4012;48.896;9.192;2024-03-08T02:26:34;18.90;;;13.67;;
7933;SDS011;4012;48.896;9.192;2024-03-08T02:28:59;20.20;;;16.97;;
7933;SDS011;4012;48.896;9.192;2024-03-08T02:31:26;23.00;;;16.30;;
7933;SDS011;4012;48.896;9.192;2024-03-08T02:33:51;20.50;;;16.57;;
7933;SDS011;4012;48.896;9.192;2024-03-08T02:36:17;21.10;;;16.33;;
7933;SDS011;4012;48.896;9.192;2024-03-08T02:38:42;22.93;;;15.10;;
7933;SDS011;4012;48.896;9.192;2024-03-08T02:41:08;19.83;;;17.00;;
7933;SDS011;4012;48.896;9.192;2024-03-08T02:43:34;19.50;;;14.23;;
7933;SDS011;4012;48.896;9.192;2024-03-08T02:45:59;20.87;;;16.07;;
7933;SDS011;4012;48.896;9.192;2024-03-08T02:48:25;17.07;;;12.50;;
7933;SDS011;4012;48.896;9.192;2024-03-08T02:50:50;19.30;;;15.73;;
7933;SDS011;4012;48.896;9.192;2024-03-08T02:53:17;18.57;;;13.53;;
7933;SDS011;4012;48.896;9.192;2024-03-08T02:55:44;20.23;;;15.47;;
7933;SDS011;4012;48.896;9.192;2024-03-08T02:58:09;18.87;;;13.40;;
7933;SDS011;4012;48.896;9.192;2024-03-08T03:00:36;20.03;;;15.97;;
7933;SDS011;4012;48.896;9.192;2024-03-08T03:03:02;19.20;;;15.00;;
7933;SDS011;4012;48.896;9.192;2024-03-08T03:05:28;19.40;;;15.43;;
7933;SDS011;4012;48.896;9.192;2024-03-08T03:07:55;19.90;;;15.20;;
7933;SDS011;4012;48.896;9.192;2024-03-08T03:10:21;22.67;;;14.80;;
7933;SDS011;4012;48.896;9.192;2024-03-08T03:12:47;17.30;;;12.90;;
7933;SDS011;4012;48.896;9.192;2024-03-08T03:15:16;17.97;;;15.00;;
7933;SDS011;4012;48.896;9.192;2024-03-08T03:17:45;18.10;;;12.37;;
7933;SDS011;4012;48.896;9.192;2024-03-08T03:20:18;16.30;;;13.67;;
7933;SDS011;4012;48.896;9.192;2024-03-08T03:22:51;19.27;;;14.57;;
7933;SDS011;4012;48.896;9.192;2024-03-08T03:25:18;17.67;;;13.50;;
7933;SDS011;4012;48.896;9.192;2024-03-08T03:27:51;18.83;;;14.73;;
7933;SDS011;4012;48.896;9.192;2024-03-08T03:30:17;17.03;;;13.80;;
7933;SDS011;4012;48.896;9.192;2024-03-08T03:32:46;16.80;;;12.60;;
7933;SDS011;4012;48.896;9.192;2024-03-08T03:35:15;19.17;;;14.00;;
7933;SDS011;4012;48.896;9.192;2024-03-08T03:37:45;21.00;;;15.40;;
7933;SDS011;4012;48.896;9.192;2024-03-08T03:40:26;17.60;;;14.90;;
7933;SDS011;4012;48.896;9.192;2024-03-08T03:42:53;19.53;;;15.20;;
7933;SDS011;4012;48.896;9.192;2024-03-08T03:45:19;19.30;;;14.33;;
7933;SDS011;4012;48.896;9.192;2024-03-08T03:47:45;17.10;;;13.97;;
7933;SDS011;4012;48.896;9.192;2024-03-08T03:50:11;22.23;;;15.07;;
7933;SDS011;4012;48.896;9.192;2024-03-08T03:52:36;17.17;;;15.13;;
7933;SDS011;4012;48.896;9.192;2024-03-08T03:55:02;20.60;;;14.80;;
7933;SDS011;4012;48.896;9.192;2024-03-08T03:57:29;17.10;;;14.20;;
7933;SDS011;4012;48.896;9.192;2024-03-08T03:59:55;19.97;;;16.20;;
7933;SDS011;4012;48.896;9.192;2024-03-08T04:02:23;18.37;;;14.87;;
7933;SDS011;4012;48.896;9.192;2024-03-08T04:04:49;21.30;;;16.07;;
7933;SDS011;4012;48.896;9.192;2024-03-08T04:07:15;21.03;;;15.07;;
7933;SDS011;4012;48.896;9.192;2024-03-08T04:09:40;18.53;;;15.63;;
7933;SDS011;4012;48.896;9.192;2024-03-08T04:12:06;17.63;;;14.83;;
7933;SDS011;4012;48.896;9.192;2024-03-08T04:14:32;21.70;;;16.20;;
7933;SDS011;4012;48.896;9.192;2024-03-08T04:16:59;21.00;;;16.20;;
7933;SDS011;4012;48.896;9.192;2024-03-08T04:19:25;18.00;;;15.20;;
7933;SDS011;4012;48.896;9.192;2024-03-08T04:21:51;19.07;;;15.77;;
7933;SDS011;4012;48.896;9.192;2024-03-08T04:24:17;20.97;;;16.00;;
7933;SDS011;4012;48.896;9.192;2024-03-08T04:26:42;20.97;;;15.57;;
7933;SDS011;4012;48.896;9.192;2024-03-08T04:29:08;20.93;;;15.87;;
7933;SDS011;4012;48.896;9.192;2024-03-08T04:31:34;19.90;;;16.17;;
7933;SDS011;4012;48.896;9.192;2024-03-08T04:33:59;18.90;;;15.00;;
7933;SDS011;4012;48.896;9.192;2024-03-08T04:36:25;17.77;;;15.23;;
7933;SDS011;4012;48.896;9.192;2024-03-08T04:38:50;19.33;;;15.30;;
7933;SDS011;4012;48.896;9.192;2024-03-08T04:41:16;20.03;;;15.23;;
7933;SDS011;4012;48.896;9.192;2024-03-08T04:43:43;19.47;;;15.37;;
7933;SDS011;4012;48.896;9.192;2024-03-08T04:46:08;21.10;;;16.63;;
7933;SDS011;4012;48.896;9.192;2024-03-08T04:48:34;18.87;;;15.57;;
7933;SDS011;4012;48.896;9.192;2024-03-08T04:51:02;17.63;;;14.70;;
7933;SDS011;4012;48.896;9.192;2024-03-08T04:53:28;20.07;;;15.70;;
7933;SDS011;4012;48.896;9.192;2024-03-08T04:55:54;19.10;;;15.03;;
7933;SDS011;4012;48.896;9.192;2024-03-08T04:58:22;20.47;;;15.73;;
7933;SDS011;4012;48.896;9.192;2024-03-08T05:00:48;19.90;;;14.93;;
7933;SDS011;4012;48.896;9.192;2024-03-08T05:03:15;19.57;;;15.50;;
7933;SDS011;4012;48.896;9.192;2024-03-08T05:05:40;18.53;;;15.20;;
7933;SDS011;4012;48.896;9.192;2024-03-08T05:08:06;20.93;;;14.87;;
7933;SDS011;4012;48.896;9.192;2024-03-08T05:10:31;19.17;;;15.03;;
7933;SDS011;4012;48.896;9.192;2024-03-08T05:12:57;21.63;;;15.00;;
7933;SDS011;4012;48.896;9.192;2024-03-08T05:15:23;19.93;;;15.77;;
7933;SDS011;4012;48.896;9.192;2024-03-08T05:17:49;20.93;;;16.03;;
7933;SDS011;4012;48.896;9.192;2024-03-08T05:20:14;25.90;;;16.63;;
7933;SDS011;4012;48.896;9.192;2024-03-08T05:22:43;20.20;;;16.67;;
7933;SDS011;4012;48.896;9.192;2024-03-08T05:25:09;21.37;;;16.33;;
7933;SDS011;4012;48.896;9.192;2024-03-08T05:27:35;22.70;;;16.53;;
7933;SDS011;4012;48.896;9.192;2024-03-08T05:30:02;22.23;;;16.57;;
7933;SDS011;4012;48.896;9.192;2024-03-08T05:32:29;19.63;;;16.10;;
7933;SDS011;4012;48.896;9.192;2024-03-08T05:34:55;19.67;;;15.17;;
7933;SDS011;4012;48.896;9.192;2024-03-08T05:37:20;18.70;;;14.80;;
7933;SDS011;4012;48.896;9.192;2024-03-08T05:39:46;18.40;;;15.10;;
7933;SDS011;4012;48.896;9.192;2024-03-08T05:42:11;19.80;;;15.87;;
7933;SDS011;4012;48.896;9.192;2024-03-08T05:44:37;17.93;;;15.33;;
7933;SDS011;4012;48.896;9.192;2024-03-08T05:47:02;19.87;;;14.50;;
7933;SDS011;4012;48.896;9.192;2024-03-08T05:49:28;19.43;;;15.00;;
7933;SDS011;4012;48.896;9.192;2024-03-08T05:51:53;17.63;;;15.13;;
7933;SDS011;4012;48.896;9.192;2024-03-08T05:54:19;19.53;;;15.50;;
7933;SDS011;4012;48.896;9.192;2024-03-08T05:56:47;22.23;;;16.10;;
7933;SDS011;4012;48.896;9.192;2024-03-08T05:59:12;19.50;;;15.37;;
7933;SDS011;4012;48.896;9.192;2024-03-08T06:01:38;18.80;;;15.47;;
7933;SDS011;4012;48.896;9.192;2024-03-08T06:04:06;19.20;;;15.43;;
7933;SDS011;4012;48.896;9.192;2024-03-08T06:06:32;19.73;;;15.17;;
7933;SDS011;4012;48.896;9.192;2024-03-08T06:08:58;18.80;;;15.43;;
7933;SDS011;4012;48.896;9.192;2024-03-08T06:11:24;20.10;;;16.20;;
7933;SDS011;4012;48.896;9.192;2024-03-08T06:13:55;21.90;;;16.33;;
7933;SDS011;4012;48.896;9.192;2024-03-08T06:16:24;20.33;;;16.07;;
7933;SDS011;4012;48.896;9.192;2024-03-08T06:18:55;22.83;;;16.87;;
7933;SDS011;4012;48.896;9.192;2024-03-08T06:21:22;19.50;;;15.87;;
7933;SDS011;4012;48.896;9.192;2024-03-08T06:23:48;21.80;;;15.97;;
7933;SDS011;4012;48.896;9.192;2024-03-08T06:26:13;24.63;;;16.03;;
7933;SDS011;4012;48.896;9.192;2024-03-08T06:28:39;21.43;;;16.10;;
7933;SDS011;4012;48.896;9.192;2024-03-08T06:31:04;21.77;;;15.47;;
7933;SDS011;4012;48.896;9.192;2024-03-08T06:33:30;20.73;;;15.33;;
7933;SDS011;4012;48.896;9.192;2024-03-08T06:35:57;23.70;;;15.50;;
7933;SDS011;4012;48.896;9.192;2024-03-08T06:38:23;26.77;;;14.87;;
7933;SDS011;4012;48.896;9.192;2024-03-08T06:40:49;23.90;;;16.67;;
7933;SDS011;4012;48.896;9.192;2024-03-08T06:43:16;22.17;;;15.20;;
7933;SDS011;4012;48.896;9.192;2024-03-08T06:45:43;24.50;;;15.83;;
7933;SDS011;4012;48.896;9.192;2024-03-08T06:48:16;22.23;;;15.73;;
7933;SDS011;4012;48.896;9.192;2024-03-08T06:50:43;23.00;;;15.97;;
7933;SDS011;4012;48.896;9.192;2024-03-08T06:53:10;25.33;;;16.67;;
7933;SDS011;4012;48.896;9.192;2024-03-08T06:55:36;26.33;;;15.63;;
7933;SDS011;4012;48.896;9.192;2024-03-08T06:58:02;19.53;;;13.13;;
7933;SDS011;4012;48.896;9.192;2024-03-08T07:00:27;29.33;;;16.63;;
7933;SDS011;4012;48.896;9.192;2024-03-08T07:02:55;22.97;;;16.77;;
7933;SDS011;4012;48.896;9.192;2024-03-08T07:05:26;21.07;;;13.23;;
7933;SDS011;4012;48.896;9.192;2024-03-08T07:07:52;21.53;;;14.10;;
7933;SDS011;4012;48.896;9.192;2024-03-08T07:10:19;29.67;;;17.07;;
7933;SDS011;4012;48.896;9.192;2024-03-08T07:12:51;24.90;;;18.67;;
7933;SDS011;4012;48.896;9.192;2024-03-08T07:15:18;22.73;;;17.20;;
7933;SDS011;4012;48.896;9.192;2024-03-08T07:17:44;21.27;;;15.60;;
7933;SDS011;4012;48.896;9.192;2024-03-08T07:20:10;20.10;;;16.03;;
7933;SDS011;4012;48.896;9.192;2024-03-08T07:22:38;19.27;;;13.50;;
7933;SDS011;4012;48.896;9.192;2024-03-08T07:25:07;19.53;;;15.47;;
7933;SDS011;4012;48.896;9.192;2024-03-08T07:27:46;22.63;;;16.63;;
7933;SDS011;4012;48.896;9.192;2024-03-08T07:30:16;21.13;;;17.30;;
7933;SDS011;4012;48.896;9.192;2024-03-08T07:33:00;20.03;;;15.53;;
7933;SDS011;4012;48.896;9.192;2024-03-08T07:35:27;18.43;;;13.67;;
7933;SDS011;4012;48.896;9.192;2024-03-08T07:37:53;20.87;;;15.57;;
7933;SDS011;4012;48.896;9.192;2024-03-08T07:40:20;15.40;;;10.97;;
7933;SDS011;4012;48.896;9.192;2024-03-08T07:42:46;19.73;;;14.67;;
7933;SDS011;4012;48.896;9.192;2024-03-08T07:45:12;18.07;;;14.50;;
7933;SDS011;4012;48.896;9.192;2024-03-08T07:47:38;23.20;;;17.73;;
7933;SDS011;4012;48.896;9.192;2024-03-08T07:50:05;22.67;;;12.03;;
7933;SDS011;4012;48.896;9.192;2024-03-08T07:52:33;16.20;;;11.90;;
7933;SDS011;4012;48.896;9.192;2024-03-08T07:54:59;19.73;;;15.03;;
7933;SDS011;4012;48.896;9.192;2024-03-08T07:57:25;16.83;;;12.07;;
7933;SDS011;4012;48.896;9.192;2024-03-08T07:59:51;14.80;;;10.27;;
7933;SDS011;4012;48.896;9.192;2024-03-08T08:02:17;21.33;;;14.77;;
7933;SDS011;4012;48.896;9.192;2024-03-08T08:04:43;20.63;;;16.73;;
7933;SDS011;4012;48.896;9.192;2024-03-08T08:07:10;21.37;;;16.83;;
7933;SDS011;4012;48.896;9.192;2024-03-08T08:09:36;17.80;;;12.13;;
7933;SDS011;4012;48.896;9.192;2024-03-08T08:12:02;21.70;;;15.83;;
7933;SDS011;4012;48.896;9.192;2024-03-08T08:14:29;20.53;;;15.20;;
7933;SDS011;4012;48.896;9.192;2024-03-08T08:16:55;21.53;;;14.20;;
7933;SDS011;4012;48.896;9.192;2024-03-08T08:19:22;18.63;;;13.27;;
7933;SDS011;4012;48.896;9.192;2024-03-08T08:21:48;16.43;;;12.83;;
7933;SDS011;4012;48.896;9.192;2024-03-08T08:24:14;18.40;;;13.47;;
7933;SDS011;4012;48.896;9.192;2024-03-08T08:26:40;22.57;;;16.67;;
7933;SDS011;4012;48.896;9.192;2024-03-08T08:29:06;15.07;;;11.03;;
7933;SDS011;4012;48.896;9.192;2024-03-08T08:31:32;18.00;;;12.90;;
7933;SDS011;4012;48.896;9.192;2024-03-08T08:34:01;18.27;;;12.17;;
7933;SDS011;4012;48.896;9.192;2024-03-08T08:36:28;20.13;;;15.07;;
7933;SDS011;4012;48.896;9.192;2024-03-08T08:38:55;18.87;;;13.43;;
7933;SDS011;4012;48.896;9.192;2024-03-08T08:41:22;21.43;;;14.50;;
7933;SDS011;4012;48.896;9.192;2024-03-08T08:43:48;17.10;;;13.70;;
7933;SDS011;4012;48.896;9.192;2024-03-08T08:46:16;15.97;;;10.93;;
7933;SDS011;4012;48.896;9.192;2024-03-08T08:48:42;18.00;;;12.73;;
7933;SDS011;4012;48.896;9.192;2024-03-08T08:51:10;15.47;;;10.10;;
7933;SDS011;4012;48.896;9.192;2024-03-08T08:53:39;21.67;;;13.70;;
7933;SDS011;4012;48.896;9.192;2024-03-08T08:56:11;19.93;;;14.10;;
7933;SDS011;4012;48.896;9.192;2024-03-08T08:58:41;11.50;;;8.77;;
7933;SDS011;4012;48.896;9.192;2024-03-08T09:01:08;16.17;;;11.83;;
7933;SDS011;4012;48.896;9.192;2024-03-08T09:03:35;19.63;;;14.07;;
7933;SDS011;4012;48.896;9.192;2024-03-08T09:06:05;20.00;;;14.43;;
7933;SDS011;4012;48.896;9.192;2024-03-08T09:08:35;19.47;;;13.17;;
7933;SDS011;4012;48.896;9.192;2024-03-08T09:11:01;14.70;;;10.53;;
7933;SDS011;4012;48.896;9.192;2024-03-08T09:13:26;19.83;;;11.77;;
7933;SDS011;4012;48.896;9.192;2024-03-08T09:15:52;13.47;;;9.33;;
7933;SDS011;4012;48.896;9.192;2024-03-08T09:18:18;15.83;;;11.77;;
7933;SDS011;4012;48.896;9.192;2024-03-08T09:20:44;20.63;;;13.97;;
7933;SDS011;4012;48.896;9.192;2024-03-08T09:23:10;18.30;;;13.13;;
7933;SDS011;4012;48.896;9.192;2024-03-08T09:25:35;17.40;;;10.13;;
7933;SDS011;4012;48.896;9.192;2024-03-08T09:28:01;14.07;;;11.17;;
7933;SDS011;4012;48.896;9.192;2024-03-08T09:30:26;16.77;;;11.63;;
7933;SDS011;4012;48.896;9.192;2024-03-08T09:32:52;18.30;;;13.17;;
7933;SDS011;4012;48.896;9.192;2024-03-08T09:35:18;21.50;;;13.17;;
7933;SDS011;4012;48.896;9.192;2024-03-08T09:37:44;17.87;;;13.10;;
7933;SDS011;4012;48.896;9.192;2024-03-08T09:40:12;16.57;;;11.40;;
7933;SDS011;4012;48.896;9.192;2024-03-08T09:42:40;15.50;;;11.33;;
7933;SDS011;4012;48.896;9.192;2024-03-08T09:45:10;18.83;;;13.43;;
7933;SDS011;4012;48.896;9.192;2024-03-08T09:47:40;16.77;;;10.47;;
7933;SDS011;4012;48.896;9.192;2024-03-08T09:50:07;15.53;;;11.70;;
7933;SDS011;4012;48.896;9.192;2024-03-08T09:52:35;10.70;;;8.47;;
7933;SDS011;4012;48.896;9.192;2024-03-08T09:55:07;18.47;;;12.77;;
7933;SDS011;4012;48.896;9.192;2024-03-08T09:57:36;18.03;;;12.57;;
7933;SDS011;4012;48.896;9.192;2024-03-08T10:00:03;18.33;;;12.50;;
7933;SDS011;4012;48.896;9.192;2024-03-08T10:02:45;16.67;;;12.27;;
7933;SDS011;4012;48.896;9.192;2024-03-08T10:05:11;16.63;;;11.40;;
7933;SDS011;4012;48.896;9.192;2024-03-08T10:07:38;18.93;;;13.27;;
7933;SDS011;4012;48.896;9.192;2024-03-08T10:10:04;19.00;;;12.67;;
7933;SDS011;4012;48.896;9.192;2024-03-08T10:12:30;14.73;;;10.80;;
7933;SDS011;4012;48.896;9.192;2024-03-08T10:14:58;16.23;;;11.20;;
7933;SDS011;4012;48.896;9.192;2024-03-08T10:17:24;16.73;;;12.03;;
7933;SDS011;4012;48.896;9.192;2024-03-08T10:19:51;14.93;;;12.40;;
7933;SDS011;4012;48.896;9.192;2024-03-08T10:22:17;15.00;;;10.33;;
7933;SDS011;4012;48.896;9.192;2024-03-08T10:24:44;18.63;;;12.13;;
7933;SDS011;4012;48.896;9.192;2024-03-08T10:27:14;17.40;;;10.10;;
7933;SDS011;4012;48.896;9.192;2024-03-08T10:29:41;17.97;;;8.80;;
7933;SDS011;4012;48.896;9.192;2024-03-08T10:32:09;16.87;;;12.13;;
7933;SDS011;4012;48.896;9.192;2024-03-08T10:34:35;12.27;;;8.47;;
7933;SDS011;4012;48.896;9.192;2024-03-08T10:37:03;17.67;;;12.40;;
7933;SDS011;4012;48.896;9.192;2024-03-08T10:39:30;20.53;;;14.13;;
7933;SDS011;4012;48.896;9.192;2024-03-08T10:42:02;21.43;;;14.03;;
7933;SDS011;4012;48.896;9.192;2024-03-08T10:47:02;16.40;;;11.00;;
7933;SDS011;4012;48.896;9.192;2024-03-08T10:49:38;18.20;;;13.03;;
7933;SDS011;4012;48.896;9.192;2024-03-08T10:52:08;17.67;;;12.60;;
7933;SDS011;4012;48.896;9.192;2024-03-08T10:54:37;16.03;;;10.77;;
7933;SDS011;4012;48.896;9.192;2024-03-08T10:57:05;14.53;;;9.53;;
7933;SDS011;4012;48.896;9.192;2024-03-08T10:59:31;17.87;;;11.67;;
7933;SDS011;4012;48.896;9.192;2024-03-08T11:01:59;16.50;;;12.33;;
7933;SDS011;4012;48.896;9.192;2024-03-08T11:04:25;18.30;;;11.47;;
7933;SDS011;4012;48.896;9.192;2024-03-08T11:06:51;15.73;;;10.43;;
7933;SDS011;4012;48.896;9.192;2024-03-08T11:09:27;20.27;;;13.33;;
7933;SDS011;4012;48.896;9.192;2024-03-08T11:14:50;13.43;;;9.33;;
7933;SDS011;4012;48.896;9.192;2024-03-08T11:17:20;18.07;;;12.17;;
7933;SDS011;4012;48.896;9.192;2024-03-08T11:19:54;17.77;;;12.50;;
7933;SDS011;4012;48.896;9.192;2024-03-08T11:22:28;16.97;;;12.70;;
7933;SDS011;4012;48.896;9.192;2024-03-08T11:25:03;19.37;;;14.50;;
7933;SDS011;4012;48.896;9.192;2024-03-08T11:27:35;18.87;;;12.63;;
7933;SDS011;4012;48.896;9.192;2024-03-08T11:30:05;19.07;;;12.77;;
7933;SDS011;4012;48.896;9.192;2024-03-08T11:32:47;20.70;;;12.87;;
7933;SDS011;4012;48.896;9.192;2024-03-08T11:35:22;18.33;;;13.30;;
7933;SDS011;4012;48.896;9.192;2024-03-08T11:37:48;21.03;;;13.63;;
7933;SDS011;4012;48.896;9.192;2024-03-08T11:40:14;18.80;;;12.20;;
7933;SDS011;4012;48.896;9.192;2024-03-08T11:42:45;20.73;;;14.27;;
7933;SDS011;4012;48.896;9.192;2024-03-08T11:45:16;20.97;;;14.03;;
7933;SDS011;4012;48.896;9.192;2024-03-08T11:47:42;21.80;;;14.97;;
7933;SDS011;4012;48.896;9.192;2024-03-08T11:50:11;20.53;;;12.70;;
7933;SDS011;4012;48.896;9.192;2024-03-08T11:52:37;20.73;;;13.17;;
7933;SDS011;4012;48.896;9.192;2024-03-08T11:55:03;19.77;;;13.90;;
7933;SDS011;4012;48.896;9.192;2024-03-08T11:57:31;19.83;;;12.23;;
7933;SDS011;4012;48.896;9.192;2024-03-08T11:59:57;20.33;;;14.77;;
7933;SDS011;4012;48.896;9.192;2024-03-08T12:02:32;17.07;;;10.17;;
7933;SDS011;4012;48.896;9.192;2024-03-08T12:05:01;16.60;;;12.57;;
7933;SDS011;4012;48.896;9.192;2024-03-08T12:07:31;21.60;;;14.03;;
7933;SDS011;4012;48.896;9.192;2024-03-08T12:12:43;16.20;;;10.37;;
7933;SDS011;4012;48.896;9.192;2024-03-08T12:15:10;16.73;;;11.20;;
7933;SDS011;4012;48.896;9.192;2024-03-08T12:17:36;17.00;;;11.03;;
7933;SDS011;4012;48.896;9.192;2024-03-08T12:20:15;17.90;;;12.80;;
7933;SDS011;4012;48.896;9.192;2024-03-08T12:22:41;22.83;;;14.70;;
7933;SDS011;4012;48.896;9.192;2024-03-08T12:25:08;21.10;;;15.00;;
7933;SDS011;4012;48.896;9.192;2024-03-08T12:27:36;21.57;;;14.17;;
7933;SDS011;4012;48.896;9.192;2024-03-08T12:30:19;21.13;;;15.20;;
7933;SDS011;4012;48.896;9.192;2024-03-08T12:32:54;18.43;;;11.20;;
7933;SDS011;4012;48.896;9.192;2024-03-08T12:35:22;22.03;;;14.13;;
7933;SDS011;4012;48.896;9.192;2024-03-08T12:37:50;17.73;;;10.70;;
7933;SDS011;4012;48.896;9.192;2024-03-08T12:40:27;17.30;;;12.73;;
7933;SDS011;4012;48.896;9.192;2024-03-08T12:42:57;20.17;;;14.53;;
7933;SDS011;4012;48.896;9.192;2024-03-08T12:45:24;20.80;;;14.87;;
7933;SDS011;4012;48.896;9.192;2024-03-08T12:47:53;21.50;;;14.97;;
7933;SDS011;4012;48.896;9.192;2024-03-08T12:50:20;20.70;;;14.47;;
7933;SDS011;4012;48.896;9.192;2024-03-08T12:52:47;18.87;;;14.00;;
7933;SDS011;4012;48.896;9.192;2024-03-08T12:55:13;16.53;;;12.10;;
7933;SDS011;4012;48.896;9.192;2024-03-08T12:57:41;20.43;;;14.10;;
7933;SDS011;4012;48.896;9.192;2024-03-08T13:00:07;19.80;;;14.57;;
7933;SDS011;4012;48.896;9.192;2024-03-08T13:02:38;19.47;;;12.93;;
7933;SDS011;4012;48.896;9.192;2024-03-08T13:05:05;20.00;;;13.77;;
7933;SDS011;4012;48.896;9.192;2024-03-08T13:07:31;23.00;;;14.40;;
7933;SDS011;4012;48.896;9.192;2024-03-08T13:09:56;19.23;;;12.43;;
7933;SDS011;4012;48.896;9.192;2024-03-08T13:12:24;19.23;;;12.83;;
7933;SDS011;4012;48.896;9.192;2024-03-08T13:14:50;14.00;;;9.67;;
7933;SDS011;4012;48.896;9.192;2024-03-08T13:17:16;19.47;;;13.37;;
7933;SDS011;4012;48.896;9.192;2024-03-08T13:19:43;19.77;;;14.30;;
7933;SDS011;4012;48.896;9.192;2024-03-08T13:22:09;21.83;;;14.83;;
7933;SDS011;4012;48.896;9.192;2024-03-08T13:24:41;21.80;;;15.83;;
7933;SDS011;4012;48.896;9.192;2024-03-08T13:27:08;19.83;;;14.30;;
7933;SDS011;4012;48.896;9.192;2024-03-08T13:29:47;20.97;;;13.93;;
7933;SDS011;4012;48.896;9.192;2024-03-08T13:32:14;15.90;;;11.93;;
7933;SDS011;4012;48.896;9.192;2024-03-08T13:34:41;16.57;;;13.00;;
7933;SDS011;4012;48.896;9.192;2024-03-08T13:37:07;16.10;;;12.27;;
7933;SDS011;4012;48.896;9.192;2024-03-08T13:39:35;18.03;;;12.93;;
7933;SDS011;4012;48.896;9.192;2024-03-08T13:42:09;17.33;;;13.63;;
7933;SDS011;4012;48.896;9.192;2024-03-08T13:44:38;16.90;;;12.37;;
7933;SDS011;4012;48.896;9.192;2024-03-08T13:47:15;18.97;;;12.47;;
7933;SDS011;4012;48.896;9.192;2024-03-08T13:49:42;18.87;;;12.70;;
7933;SDS011;4012;48.896;9.192;2024-03-08T13:52:08;19.37;;;14.13;;
7933;SDS011;4012;48.896;9.192;2024-03-08T13:54:35;19.23;;;14.17;;
7933;SDS011;4012;48.896;9.192;2024-03-08T13:57:01;17.27;;;13.47;;
7933;SDS011;4012;48.896;9.192;2024-03-08T13:59:29;17.80;;;13.63;;
7933;SDS011;4012;48.896;9.192;2024-03-08T14:02:00;17.27;;;12.63;;
7933;SDS011;4012;48.896;9.192;2024-03-08T14:04:27;17.97;;;12.50;;
7933;SDS011;4012;48.896;9.192;2024-03-08T14:06:53;18.80;;;13.60;;
7933;SDS011;4012;48.896;9.192;2024-03-08T14:09:26;14.67;;;10.90;;
7933;SDS011;4012;48.896;9.192;2024-03-08T14:11:54;16.63;;;13.37;;
7933;SDS011;4012;48.896;9.192;2024-03-08T14:14:20;16.23;;;12.33;;
7933;SDS011;4012;48.896;9.192;2024-03-08T14:16:48;17.67;;;13.40;;
7933;SDS011;4012;48.896;9.192;2024-03-08T14:19:17;19.77;;;13.63;;
7933;SDS011;4012;48.896;9.192;2024-03-08T14:21:43;18.87;;;12.97;;
7933;SDS011;4012;48.896;9.192;2024-03-08T14:24:09;17.93;;;12.97;;
7933;SDS011;4012;48.896;9.192;2024-03-08T14:26:35;16.27;;;11.53;;
7933;SDS011;4012;48.896;9.192;2024-03-08T14:29:03;18.03;;;12.80;;
7933;SDS011;4012;48.896;9.192;2024-03-08T14:31:30;15.43;;;12.13;;
7933;SDS011;4012;48.896;9.192;2024-03-08T14:33:56;18.20;;;12.60;;
7933;SDS011;4012;48.896;9.192;2024-03-08T14:36:23;17.83;;;13.30;;
7933;SDS011;4012;48.896;9.192;2024-03-08T14:38:50;17.27;;;13.03;;
7933;SDS011;4012;48.896;9.192;2024-03-08T14:41:17;17.30;;;13.27;;
7933;SDS011;4012;48.896;9.192;2024-03-08T14:43:43;12.50;;;8.73;;
7933;SDS011;4012;48.896;9.192;2024-03-08T14:46:12;16.33;;;12.47;;
7933;SDS011;4012;48.896;9.192;2024-03-08T14:48:51;18.50;;;13.17;;
7933;SDS011;4012;48.896;9.192;2024-03-08T14:51:18;16.37;;;12.87;;
7933;SDS011;4012;48.896;9.192;2024-03-08T14:53:46;17.73;;;12.33;;
7933;SDS011;4012;48.896;9.192;2024-03-08T14:56:15;19.30;;;12.77;;